Time;durP1;ratioP1;P1;durP2;ratioP2;P2;SDS_P1;SDS_P2;PMS_P1;PMS_P2;Temp;Humidity;BMP_temperature;BMP_pressure;BME280_temperature;BME280_humidity;BME280_pressure;Samples;Min_cycle;Max_cycle;Signal;HPM_P1;HPM_P2
2022/04/18 00:01:14;;;;;;;;;14.75;12.75;;;;;9.21;44.42;99142.91;6219824;27;99678;-69
2022/04/18 00:04:19;;;;;;;;;12.00;11.60;;;;;9.12;44.60;99136.94;6243333;27;98975;-69
2022/04/18 00:07:23;;;;;;;;;13.75;11.75;;;;;9.20;44.38;99140.44;6261622;27;96545;-70
2022/04/18 00:10:26;;;;;;;;;17.50;15.50;;;;;9.20;44.21;99152.03;6240980;27;98886;-71
2022/04/18 00:13:30;;;;;;;;;15.00;14.00;;;;;9.20;44.03;99129.66;6262419;27;100212;-70
2022/04/18 00:16:33;;;;;;;;;16.50;15.00;;;;;9.15;43.81;99138.38;6261343;27;97619;-70
2022/04/18 00:19:39;;;;;;;;;17.00;15.00;;;;;9.06;44.35;99139.59;6262340;27;97787;-71
2022/04/18 00:22:42;;;;;;;;;14.40;14.40;;;;;9.04;44.37;99128.25;6242173;27;97786;-72
2022/04/18 00:25:46;;;;;;;;;17.00;15.00;;;;;9.00;44.24;99130.50;6243724;27;98652;-71
2022/04/18 00:28:50;;;;;;;;;14.00;13.40;;;;;8.52;44.34;99059.91;6218704;28;97615;-70
2022/04/18 00:31:53;;;;;;;;;15.00;13.80;;;;;8.90;44.21;99127.38;6239165;27;96964;-70
2022/04/18 00:34:59;;;;;;;;;16.00;14.00;;;;;8.85;44.20;99129.03;6226548;27;98315;-69
2022/04/18 00:38:02;;;;;;;;;13.00;12.60;;;;;8.80;44.24;99131.50;6255506;27;97508;-70
2022/04/18 00:41:06;;;;;;;;;16.75;16.00;;;;;8.69;44.23;99112.28;6249947;27;96979;-71
2022/04/18 00:44:09;;;;;;;;;15.00;13.75;;;;;8.74;44.11;99122.41;6261299;27;96347;-70
2022/04/18 00:47:12;;;;;;;;;16.20;14.80;;;;;8.67;44.29;99110.81;6241701;27;98769;-71
2022/04/18 00:50:17;;;;;;;;;23.00;21.00;;;;;8.73;43.73;99109.16;6281161;27;96352;-72
2022/04/18 00:53:21;;;;;;;;;17.80;15.80;;;;;8.69;44.23;99106.06;6244700;27;97623;-70
2022/04/18 00:56:25;;;;;;;;;22.00;19.00;;;;;8.67;43.83;99094.69;6262002;27;97440;-71
2022/04/18 00:59:32;;;;;;;;;19.60;17.60;;;;;8.68;43.70;99102.53;6243688;27;96517;-70
2022/04/18 01:02:35;;;;;;;;;19.50;18.50;;;;;8.63;43.80;99082.69;6256050;27;96604;-71
2022/04/18 01:05:40;;;;;;;;;23.40;20.60;;;;;8.69;43.61;99095.31;6258443;27;97283;-69
2022/04/18 01:08:45;;;;;;;;;28.00;23.00;;;;;8.73;43.73;99088.50;6243618;27;97058;-71
2022/04/18 01:11:50;;;;;;;;;27.60;25.00;;;;;8.74;43.81;99073.19;6261752;27;97396;-71
2022/04/18 01:15:02;;;;;;;;;28.00;24.00;;;;;8.90;43.42;99081.66;6246137;27;97494;-71
2022/04/18 01:18:26;;;;;;;;;27.80;24.20;;;;;8.98;42.94;99076.09;6223334;27;99655;-70
2022/04/18 01:21:49;;;;;;;;;29.00;26.00;;;;;9.09;42.88;99071.94;6258164;27;97493;-71
2022/04/18 01:31:54;;;;;;;;;26.75;24.75;;;;;9.35;43.36;99088.06;6240294;27;98131;-71
2022/04/18 01:34:57;;;;;;;;;24.50;22.00;;;;;9.43;41.84;99089.72;6241073;27;97392;-71
2022/04/18 01:38:04;;;;;;;;;31.00;27.00;;;;;9.48;42.31;99090.72;6225995;27;98040;-71
2022/04/18 01:41:07;;;;;;;;;24.20;22.60;;;;;9.56;42.32;99077.06;6260163;27;96939;-71
2022/04/18 01:44:10;;;;;;;;;27.60;24.20;;;;;9.66;42.44;99062.34;6242093;27;99455;-69
2022/04/18 01:47:13;;;;;;;;;28.40;24.00;;;;;9.70;42.51;99066.25;6240776;27;97235;-71
2022/04/18 01:50:17;;;;;;;;;22.40;22.00;;;;;9.75;42.59;99064.59;6241669;27;97021;-70
2022/04/18 01:53:22;;;;;;;;;24.00;21.50;;;;;9.66;41.89;99049.72;6257773;27;97456;-72
2022/04/18 01:56:26;;;;;;;;;23.40;20.00;;;;;9.74;41.95;99057.56;6223186;27;97206;-72
2022/04/18 01:59:30;;;;;;;;;25.20;23.20;;;;;9.78;41.95;99049.88;6256722;27;97424;-72
2022/04/18 02:02:34;;;;;;;;;23.00;22.00;;;;;9.84;41.96;99044.47;6223065;27;99745;-72
2022/04/18 02:05:37;;;;;;;;;27.00;22.80;;;;;9.89;42.31;99041.13;6256546;27;97483;-70
2022/04/18 02:08:42;;;;;;;;;24.80;23.00;;;;;9.92;42.03;99035.34;6245484;27;96947;-71
2022/04/18 02:11:46;;;;;;;;;26.00;23.00;;;;;9.93;42.15;99035.09;6247807;27;96794;-71
2022/04/18 02:14:49;;;;;;;;;24.50;22.50;;;;;9.71;42.30;98997.94;6240579;27;96936;-72
2022/04/18 02:17:54;;;;;;;;;27.60;23.40;;;;;9.85;42.33;99026.44;6238327;27;97032;-71
2022/04/18 02:20:57;;;;;;;;;25.40;24.20;;;;;9.83;42.60;99031.22;6230397;27;97180;-72
2022/04/18 02:24:02;;;;;;;;;25.00;23.00;;;;;9.81;42.62;99026.06;6219590;27;97039;-72
2022/04/18 02:27:06;;;;;;;;;24.00;21.40;;;;;9.80;42.56;99019.00;6220956;27;97101;-71
2022/04/18 02:30:10;;;;;;;;;24.00;22.00;;;;;9.71;42.52;99016.78;6226323;27;98169;-72
2022/04/18 02:33:13;;;;;;;;;22.60;20.00;;;;;9.70;42.59;99015.94;6241598;27;97018;-71
2022/04/18 02:36:17;;;;;;;;;27.40;24.40;;;;;9.69;42.85;99019.66;6225734;27;98072;-70
2022/04/18 02:39:22;;;;;;;;;25.40;24.40;;;;;9.70;43.06;99015.13;6226589;27;97535;-70
2022/04/18 02:42:26;;;;;;;;;24.00;21.80;;;;;9.68;43.23;99017.19;6258141;27;97028;-72
2022/04/18 02:45:31;;;;;;;;;24.50;22.00;;;;;9.66;43.43;99012.03;6229505;27;96610;-71
2022/04/18 02:48:49;;;;;;;;;23.00;21.20;;;;;9.49;43.48;99013.53;6259963;27;97530;-71
2022/04/18 02:51:54;;;;;;;;;23.80;21.00;;;;;9.48;43.18;99012.69;6225807;27;99367;-72
2022/04/18 02:55:00;;;;;;;;;24.00;22.50;;;;;9.49;43.40;99014.34;6231261;28;97913;-70
2022/04/18 02:58:03;;;;;;;;;24.60;23.00;;;;;9.53;43.13;99009.34;6215118;28;98810;-71
2022/04/18 03:01:10;;;;;;;;;26.00;23.00;;;;;9.63;42.97;99008.94;6246743;27;97461;-71
2022/04/18 03:04:14;;;;;;;;;25.00;22.00;;;;;9.62;42.37;98993.81;6230573;27;96622;-71
2022/04/18 03:07:19;;;;;;;;;22.40;20.60;;;;;9.75;41.99;98997.28;6244936;27;97130;-69
2022/04/18 03:13:44;;;;;;;;;26.00;23.00;;;;;9.78;42.18;98987.94;6239640;27;97619;-70
2022/04/18 03:17:06;;;;;;;;;27.00;23.00;;;;;9.88;42.16;98986.44;6253973;27;97917;-70
2022/04/18 03:20:10;;;;;;;;;25.00;23.00;;;;;9.40;42.79;98934.91;6234363;27;99951;-70
2022/04/18 03:23:13;;;;;;;;;26.75;23.00;;;;;9.64;42.99;98980.97;6264144;27;97463;-70
2022/04/18 03:26:53;;;;;;;;;25.40;24.40;;;;;9.68;43.61;98996.47;6212481;27;97413;-72
2022/04/18 03:30:03;;;;;;;;;27.80;26.00;;;;;9.73;43.88;98996.66;6245647;27;96617;-70
2022/04/18 03:33:15;;;;;;;;;25.20;22.20;;;;;9.76;42.85;98982.78;6258304;27;96828;-72
2022/04/18 03:39:55;;;;;;;;;28.40;23.40;;;;;9.91;42.75;98986.03;6221397;28;96975;-71
2022/04/18 03:43:03;;;;;;;;;26.00;23.00;;;;;9.95;42.50;98981.03;6258618;27;97111;-69
2022/04/18 03:46:06;;;;;;;;;27.75;24.75;;;;;9.97;42.01;98970.84;6238865;27;97587;-72
2022/04/18 03:49:10;;;;;;;;;28.00;25.50;;;;;10.09;41.61;98977.22;6249949;27;97091;-70
2022/04/18 03:52:16;;;;;;;;;24.40;22.60;;;;;10.04;42.69;98968.13;6244034;27;96574;-70
2022/04/18 03:55:20;;;;;;;;;25.25;22.25;;;;;9.95;42.91;98962.19;6218248;27;97391;-71
2022/04/18 03:58:25;;;;;;;;;24.60;21.00;;;;;9.72;43.49;98964.59;6223742;27;98665;-69
2022/04/18 04:01:28;;;;;;;;;24.00;21.80;;;;;9.62;43.53;98965.06;6218094;27;97153;-72
2022/04/18 04:04:31;;;;;;;;;23.40;21.40;;;;;9.64;43.96;98964.81;6225215;27;100318;-71
2022/04/18 04:07:38;;;;;;;;;23.00;21.00;;;;;9.62;44.24;98964.22;6227134;27;96747;-72
2022/04/18 04:11:00;;;;;;;;;24.00;21.25;;;;;9.61;44.16;98965.25;6234613;27;98441;-70
2022/04/18 04:14:07;;;;;;;;;27.00;22.00;;;;;9.62;43.69;98958.84;6225045;27;98569;-71
2022/04/18 04:17:11;;;;;;;;;24.50;22.50;;;;;9.64;43.82;98957.56;6238416;27;97343;-70
2022/04/18 04:20:19;;;;;;;;;29.00;24.20;;;;;9.64;43.91;98956.75;6231566;27;97526;-72
2022/04/18 04:23:24;;;;;;;;;27.00;24.40;;;;;9.68;44.01;98957.94;6245440;27;96691;-71
2022/04/18 04:26:54;;;;;;;;;24.75;23.00;;;;;9.75;44.04;98951.50;6236656;27;98558;-70
2022/04/18 04:30:00;;;;;;;;;30.00;26.60;;;;;9.76;43.88;98958.56;6227534;27;98389;-71
2022/04/18 04:33:16;;;;;;;;;27.00;25.20;;;;;9.60;43.85;98939.38;6234649;27;99652;-71
2022/04/18 04:36:22;;;;;;;;;29.00;25.00;;;;;9.87;43.27;98963.25;6226049;27;98379;-71
2022/04/18 04:39:26;;;;;;;;;28.50;26.00;;;;;9.94;42.73;98963.22;6248838;27;98477;-71
2022/04/18 04:42:30;;;;;;;;;27.00;25.00;;;;;9.93;42.66;98962.38;6260378;27;97577;-70
2022/04/18 04:45:35;;;;;;;;;26.00;22.00;;;;;9.95;42.70;98965.72;6259461;27;96881;-70
2022/04/18 04:48:57;;;;;;;;;23.75;22.00;;;;;9.97;42.34;98958.22;6243632;27;98083;-70
2022/04/18 04:52:00;;;;;;;;;33.00;27.40;;;;;10.02;42.29;98970.25;6232456;28;97254;-70
2022/04/18 04:55:06;;;;;;;;;30.25;25.25;;;;;10.05;41.80;98969.78;6220701;27;97222;-70
2022/04/18 04:58:19;;;;;;;;;24.20;21.20;;;;;10.06;41.68;98982.22;6231542;27;96955;-69
2022/04/18 05:01:33;;;;;;;;;30.00;25.00;;;;;10.10;41.60;98989.66;6242550;27;97430;-72
2022/04/18 05:04:42;;;;;;;;;26.00;22.80;;;;;10.15;41.53;98997.91;6220614;27;96698;-71
2022/04/18 05:07:50;;;;;;;;;26.25;23.50;;;;;10.25;41.66;98989.41;6223896;27;97968;-71
2022/04/18 05:10:59;;;;;;;;;28.20;24.20;;;;;10.30;41.65;98981.50;6240601;27;97199;-71
2022/04/18 05:14:12;;;;;;;;;26.25;23.00;;;;;10.47;41.59;98979.91;6243632;27;97547;-72
2022/04/18 05:17:29;;;;;;;;;24.60;23.00;;;;;10.74;41.31;98972.44;6260250;27;97492;-71
2022/04/18 05:20:39;;;;;;;;;25.00;22.40;;;;;10.70;40.63;98944.28;6239950;27;96654;-71
2022/04/18 05:23:43;;;;;;;;;20.00;19.40;;;;;11.00;40.72;98966.78;6226757;27;98751;-70
2022/04/18 05:26:48;;;;;;;;;25.40;23.00;;;;;11.07;39.95;98962.16;6256357;27;97975;-70
2022/04/18 05:29:52;;;;;;;;;22.80;21.80;;;;;11.16;39.42;98968.91;6242526;27;97194;-72
2022/04/18 05:32:57;;;;;;;;;23.00;21.50;;;;;11.20;39.13;98963.88;6233796;28;98342;-70
2022/04/18 05:36:01;;;;;;;;;25.00;22.00;;;;;11.22;39.35;98984.22;6219005;28;96758;-72
2022/04/18 05:39:09;;;;;;;;;32.50;27.50;;;;;11.19;39.30;98984.66;6227990;28;98511;-72
2022/04/18 05:42:16;;;;;;;;;27.60;24.60;;;;;11.22;39.50;98983.41;6232904;27;96869;-72
2022/04/18 05:45:20;;;;;;;;;26.60;23.00;;;;;11.24;39.38;98986.69;6250959;27;97503;-72
2022/04/18 05:48:34;;;;;;;;;31.00;27.00;;;;;11.19;39.45;98970.34;6222477;27;96945;-72
2022/04/18 05:51:38;;;;;;;;;30.60;27.20;;;;;11.01;39.67;98970.31;6240358;27;97917;-71
2022/04/18 05:54:42;;;;;;;;;32.25;29.25;;;;;10.54;40.06;98896.28;6257547;27;99053;-71
2022/04/18 05:57:46;;;;;;;;;32.00;28.00;;;;;11.17;39.65;98975.97;6224041;27;98017;-72
2022/04/18 06:00:49;;;;;;;;;37.25;31.00;;;;;11.26;39.04;98976.50;6237250;27;97730;-71
2022/04/18 06:03:54;;;;;;;;;36.60;32.00;;;;;11.33;39.35;98971.88;6237822;27;97057;-70
2022/04/18 06:06:57;;;;;;;;;37.40;33.00;;;;;11.45;39.86;98982.72;6222133;27;97337;-70
2022/04/18 06:10:01;;;;;;;;;32.75;29.75;;;;;11.43;38.83;98985.66;6253520;27;97136;-72
2022/04/18 06:13:06;;;;;;;;;35.00;29.40;;;;;11.42;38.96;98985.88;6239542;27;98060;-70
2022/04/18 06:16:09;;;;;;;;;31.60;29.60;;;;;11.45;39.30;98996.22;6224429;27;97245;-72
2022/04/18 06:19:14;;;;;;;;;34.00;29.80;;;;;11.58;39.03;98994.19;6241369;27;99299;-71
2022/04/18 06:22:18;;;;;;;;;33.40;30.00;;;;;11.68;38.80;99005.28;6231971;28;98405;-70
2022/04/18 06:25:22;;;;;;;;;35.60;30.00;;;;;11.73;38.48;99002.78;6239696;27;97596;-73
2022/04/18 06:28:25;;;;;;;;;34.60;30.00;;;;;11.72;38.45;98989.47;6241506;27;97582;-72
2022/04/18 06:31:29;;;;;;;;;37.00;30.20;;;;;11.89;38.30;98992.41;6240468;27;98033;-72
2022/04/18 06:34:38;;;;;;;;;33.20;27.00;;;;;12.02;38.26;98973.34;6258767;27;96614;-71
2022/04/18 06:37:48;;;;;;;;;33.00;29.20;;;;;12.14;38.44;98958.78;6244436;27;97285;-71
2022/04/18 06:41:13;;;;;;;;;31.00;29.00;;;;;12.31;38.66;98944.63;6246231;27;99650;-71
2022/04/18 06:44:17;;;;;;;;;33.00;29.00;;;;;12.39;38.27;98947.00;6256379;27;96784;-70
2022/04/18 06:47:27;;;;;;;;;33.00;30.00;;;;;12.75;37.97;98944.13;6222116;27;97459;-71
2022/04/18 06:50:52;;;;;;;;;28.00;26.00;;;;;13.16;36.98;98945.06;6259679;27;96742;-72
2022/04/18 06:54:14;;;;;;;;;28.40;26.00;;;;;13.48;36.08;98959.88;6262387;27;96802;-70
2022/04/18 06:57:25;;;;;;;;;31.75;25.75;;;;;13.96;35.62;98955.97;6226382;27;98136;-72
2022/04/18 07:00:31;;;;;;;;;28.80;26.40;;;;;14.30;34.99;98955.81;6226243;27;98747;-71
2022/04/18 07:03:35;;;;;;;;;30.00;27.40;;;;;14.55;34.50;98941.91;6255521;27;96807;-71
2022/04/18 07:06:40;;;;;;;;;26.80;24.80;;;;;14.66;34.27;98951.03;6233853;27;96769;-71
2022/04/18 07:09:43;;;;;;;;;28.75;26.25;;;;;14.74;34.36;98951.44;6243333;27;98410;-71
2022/04/18 07:12:52;;;;;;;;;28.00;26.20;;;;;14.78;34.19;98923.78;6263118;27;96521;-71
2022/04/18 07:15:56;;;;;;;;;30.40;26.00;;;;;15.17;33.31;98950.72;6241632;27;97459;-71
2022/04/18 07:18:59;;;;;;;;;25.50;21.50;;;;;15.46;32.91;98940.53;6227253;27;96813;-72
2022/04/18 07:22:04;;;;;;;;;24.60;22.60;;;;;15.70;32.51;98930.25;6217976;28;97873;-70
2022/04/18 07:25:09;;;;;;;;;29.00;25.00;;;;;16.06;32.12;98930.66;6245128;27;97063;-71
2022/04/18 07:28:15;;;;;;;;;23.60;21.00;;;;;16.34;31.28;98931.22;6238338;27;97872;-72
2022/04/18 07:31:18;;;;;;;;;19.60;18.40;;;;;16.40;30.68;98932.09;6221685;28;97794;-72
2022/04/18 07:34:23;;;;;;;;;23.00;19.50;;;;;16.60;30.25;98926.03;6245297;27;96890;-72
2022/04/18 07:37:29;;;;;;;;;20.80;19.80;;;;;16.73;29.79;98926.41;6226897;27;98582;-71
2022/04/18 07:40:33;;;;;;;;;21.25;20.25;;;;;16.95;30.36;98923.59;6226210;27;97039;-72
2022/04/18 07:43:45;;;;;;;;;19.75;18.75;;;;;17.06;29.98;98927.19;6237097;27;97185;-72
2022/04/18 07:46:49;;;;;;;;;18.67;17.00;;;;;17.12;28.97;98923.41;6241584;27;97684;-71
2022/04/18 07:50:00;;;;;;;;;18.00;17.00;;;;;17.28;28.71;98925.97;6228012;27;98009;-71
2022/04/18 07:53:05;;;;;;;;;16.00;15.60;;;;;17.40;28.42;98931.19;6239588;27;97541;-71
2022/04/18 07:56:09;;;;;;;;;16.00;15.00;;;;;17.71;27.15;98924.00;6255854;27;97946;-71
2022/04/18 07:59:12;;;;;;;;;13.00;12.00;;;;;18.07;27.09;98925.78;6258722;27;97364;-71
2022/04/18 08:02:18;;;;;;;;;15.00;13.80;;;;;18.66;26.56;98917.13;6243778;27;96687;-70
2022/04/18 08:05:40;;;;;;;;;14.00;13.75;;;;;19.17;25.07;98917.06;6237852;27;98687;-72
2022/04/18 08:08:47;;;;;;;;;15.00;13.00;;;;;19.31;26.08;98916.19;6236317;27;97670;-72
2022/04/18 08:11:51;;;;;;;;;14.00;12.25;;;;;19.38;24.80;98913.19;6260435;27;96917;-73
2022/04/18 08:15:02;;;;;;;;;15.00;13.00;;;;;19.10;25.19;98922.84;6243657;27;98551;-71
2022/04/18 08:18:06;;;;;;;;;14.00;14.00;;;;;18.91;25.39;98916.31;6251849;27;96314;-71
2022/04/18 08:21:21;;;;;;;;;11.00;11.00;;;;;18.77;25.23;98913.28;6220347;27;98504;-72
2022/04/18 08:24:26;;;;;;;;;11.20;9.20;;;;;18.67;25.31;98907.84;6235318;27;97864;-73
2022/04/18 08:27:48;;;;;;;;;10.00;10.00;;;;;18.92;24.58;98910.53;6238310;27;100282;-71
2022/04/18 08:31:00;;;;;;;;;12.00;11.00;;;;;18.90;23.82;98907.28;6235330;27;97961;-71
2022/04/18 08:34:22;;;;;;;;;12.00;11.00;;;;;18.99;23.37;98908.38;6243116;27;98277;-73
2022/04/18 08:37:26;;;;;;;;;12.20;11.00;;;;;18.92;23.42;98898.78;6260374;27;97483;-71
2022/04/18 08:40:51;;;;;;;;;13.00;11.00;;;;;19.27;25.05;98896.00;6264068;27;96458;-71
2022/04/18 08:44:00;;;;;;;;;12.50;11.50;;;;;19.98;23.61;98898.47;6245611;27;96723;-71
2022/04/18 08:47:04;;;;;;;;;12.40;12.40;;;;;20.37;22.70;98897.69;6246038;27;98565;-72
2022/04/18 08:53:32;;;;;;;;;11.40;11.00;;;;;20.48;20.92;98899.22;6245505;27;98325;-71
2022/04/18 08:56:40;;;;;;;;;12.00;12.00;;;;;20.30;21.31;98881.53;6244616;27;97419;-72
2022/04/18 08:59:44;;;;;;;;;10.80;9.80;;;;;20.61;21.98;98879.44;6244622;27;96469;-73
2022/04/18 09:02:47;;;;;;;;;11.00;10.00;;;;;20.38;21.88;98875.47;6244796;27;97627;-74
2022/04/18 09:06:08;;;;;;;;;12.00;11.00;;;;;20.90;22.97;98873.94;6245309;27;96780;-73
2022/04/18 09:09:11;;;;;;;;;12.00;11.60;;;;;21.21;21.86;98869.78;6228384;27;99469;-71
2022/04/18 09:12:21;;;;;;;;;12.00;11.00;;;;;21.06;21.52;98865.25;6243017;27;97102;-74
2022/04/18 09:15:56;;;;;;;;;11.00;10.00;;;;;20.77;21.50;98859.81;6251775;27;97086;-73
2022/04/18 09:19:05;;;;;;;;;12.00;11.50;;;;;20.52;21.45;98851.03;6245133;27;96720;-73
2022/04/18 09:22:08;;;;;;;;;10.25;10.00;;;;;20.20;22.09;98859.72;6245138;27;96710;-72
2022/04/18 09:25:20;;;;;;;;;9.00;8.00;;;;;19.75;21.62;98853.44;6262650;27;97416;-73
2022/04/18 09:28:27;;;;;;;;;9.00;8.00;;;;;19.24;21.36;98849.28;6244459;27;96768;-71
2022/04/18 09:31:39;;;;;;;;;9.00;9.00;;;;;18.95;22.36;98854.56;6234274;27;96791;-73
2022/04/18 09:35:00;;;;;;;;;8.00;8.00;;;;;18.74;22.55;98851.03;6221009;27;97393;-72
2022/04/18 09:38:06;;;;;;;;;7.00;6.00;;;;;18.49;22.52;98851.84;6257983;27;97455;-70
2022/04/18 09:41:33;;;;;;;;;6.50;6.00;;;;;18.52;22.77;98848.56;6250213;27;97097;-72
2022/04/18 09:44:50;;;;;;;;;9.00;7.00;;;;;18.93;22.62;98845.81;6257686;27;96471;-71
2022/04/18 09:47:58;;;;;;;;;8.40;8.40;;;;;19.53;22.59;98842.06;6258868;27;96841;-72
2022/04/18 09:51:08;;;;;;;;;11.00;9.40;;;;;19.70;23.06;98837.03;6227844;28;97388;-71
2022/04/18 09:54:21;;;;;;;;;10.40;10.00;;;;;19.81;22.70;98846.00;6214450;27;97663;-71
2022/04/18 09:57:26;;;;;;;;;9.00;7.25;;;;;19.77;21.78;98836.75;6262780;27;97445;-71
2022/04/18 10:00:31;;;;;;;;;11.40;10.60;;;;;19.76;22.32;98837.84;6244787;27;96688;-74
2022/04/18 10:03:36;;;;;;;;;8.50;8.50;;;;;19.16;22.04;98838.91;6226097;27;98996;-74
2022/04/18 10:06:41;;;;;;;;;8.00;7.20;;;;;18.84;23.18;98837.34;6243890;27;96408;-73
2022/04/18 10:09:45;;;;;;;;;10.00;9.00;;;;;18.66;23.01;98829.75;6261320;27;97491;-71
2022/04/18 10:12:48;;;;;;;;;10.50;10.00;;;;;18.59;23.80;98826.47;6240580;27;99677;-72
2022/04/18 10:15:54;;;;;;;;;9.40;8.00;;;;;18.48;23.37;98822.09;6262312;27;96663;-72
2022/04/18 10:19:00;;;;;;;;;10.00;8.75;;;;;18.29;23.82;98816.38;6226551;27;97925;-74
2022/04/18 10:22:20;;;;;;;;;11.00;9.25;;;;;18.14;23.69;98811.72;6260091;27;96675;-71
2022/04/18 10:25:39;;;;;;;;;9.20;9.00;;;;;17.90;24.00;98810.63;6242928;27;97271;-71
2022/04/18 10:28:46;;;;;;;;;9.00;8.40;;;;;17.74;24.23;98819.84;6240454;27;98646;-72
2022/04/18 10:31:53;;;;;;;;;10.00;9.40;;;;;17.63;24.70;98799.13;6260219;27;97438;-72
2022/04/18 10:35:01;;;;;;;;;8.00;7.00;;;;;17.60;23.47;98802.38;6227088;27;97019;-72
2022/04/18 10:38:06;;;;;;;;;6.60;6.00;;;;;17.69;23.30;98798.84;6237410;27;98839;-72
2022/04/18 10:41:34;;;;;;;;;8.60;8.00;;;;;17.89;22.29;98802.69;6258209;27;98109;-73
2022/04/18 10:44:38;;;;;;;;;7.40;6.00;;;;;18.60;22.52;98793.44;6254883;27;96645;-72
2022/04/18 10:48:06;;;;;;;;;7.00;6.25;;;;;18.51;20.78;98788.78;6228211;27;97797;-71
2022/04/18 10:51:27;;;;;;;;;7.00;7.00;;;;;18.10;21.60;98783.34;6238261;27;96675;-71
2022/04/18 10:54:30;;;;;;;;;8.40;8.00;;;;;18.18;22.82;98777.34;6240466;27;97791;-72
2022/04/18 10:57:34;;;;;;;;;9.00;8.00;;;;;18.64;22.87;98787.41;6258500;27;97023;-73
2022/04/18 11:00:51;;;;;;;;;8.00;8.00;;;;;18.92;21.64;98778.59;6223622;27;99055;-73
2022/04/18 11:04:00;;;;;;;;;8.00;8.00;;;;;19.11;21.55;98785.09;6240245;27;97549;-71
2022/04/18 11:07:05;;;;;;;;;7.80;6.80;;;;;19.19;21.41;98784.53;6255719;27;96894;-71
2022/04/18 11:10:19;;;;;;;;;10.00;8.60;;;;;19.22;21.57;98773.00;6256419;27;97902;-73
2022/04/18 11:13:27;;;;;;;;;7.00;6.20;;;;;18.97;20.92;98757.53;6241362;27;97341;-72
2022/04/18 11:16:54;;;;;;;;;7.00;7.00;;;;;18.99;21.12;98777.22;6236108;27;98506;-73
2022/04/18 11:20:38;;;;;;;;;7.00;7.00;;;;;18.93;21.97;98775.59;6234022;27;97411;-69
2022/04/18 11:23:48;;;;;;;;;6.00;5.80;;;;;18.84;21.10;98766.34;6259850;27;97175;-74
2022/04/18 11:26:53;;;;;;;;;7.00;6.00;;;;;18.71;21.57;98766.94;6258221;27;97144;-73
2022/04/18 11:29:58;;;;;;;;;9.00;7.75;;;;;18.68;21.95;98767.47;6258741;27;97530;-71
2022/04/18 11:33:04;;;;;;;;;8.00;7.00;;;;;18.57;21.70;98763.13;6260071;27;97556;-72
2022/04/18 11:36:09;;;;;;;;;5.00;5.00;;;;;18.54;22.41;98760.97;6258454;27;96649;-72
2022/04/18 11:39:13;;;;;;;;;7.00;7.00;;;;;18.48;21.59;98762.84;6252701;27;97549;-73
2022/04/18 11:42:17;;;;;;;;;5.60;5.60;;;;;18.38;21.64;98749.22;6260317;27;97387;-72
2022/04/18 11:45:25;;;;;;;;;5.00;4.80;;;;;18.38;21.18;98751.94;6261695;27;97534;-73
2022/04/18 11:48:29;;;;;;;;;7.00;6.00;;;;;18.37;21.85;98750.31;6245827;27;96972;-72
2022/04/18 11:51:41;;;;;;;;;8.00;8.00;;;;;18.25;20.67;98738.06;6243463;27;97516;-73
2022/04/18 11:54:54;;;;;;;;;7.00;7.00;;;;;18.89;21.44;98741.75;6240323;27;98659;-72
2022/04/18 11:57:59;;;;;;;;;8.00;7.00;;;;;19.39;20.55;98739.88;6260871;27;96686;-73
2022/04/18 12:07:47;;;;;;;;;7.00;6.00;;;;;20.69;19.23;98720.72;6260524;27;97312;-74
2022/04/18 12:10:50;;;;;;;;;6.40;6.40;;;;;20.62;18.79;98724.94;6243647;27;97374;-72
2022/04/18 12:13:54;;;;;;;;;6.80;6.20;;;;;20.42;19.55;98723.22;6260881;27;97159;-72
2022/04/18 12:17:02;;;;;;;;;7.00;6.00;;;;;20.19;20.55;98724.75;6243198;27;97801;-72
2022/04/18 12:20:19;;;;;;;;;7.00;7.00;;;;;19.79;20.59;98719.66;6259945;27;96732;-73
2022/04/18 12:23:26;;;;;;;;;7.00;6.00;;;;;19.37;20.98;98722.91;6260874;27;97547;-74
2022/04/18 12:26:31;;;;;;;;;6.00;6.00;;;;;18.98;21.43;98728.31;6242901;27;100339;-72
2022/04/18 12:29:34;;;;;;;;;8.00;7.00;;;;;18.65;21.67;98727.06;6259016;27;97487;-71
2022/04/18 12:32:38;;;;;;;;;6.40;6.40;;;;;18.36;21.71;98720.56;6254517;27;97949;-72
2022/04/18 12:35:43;;;;;;;;;7.00;7.00;;;;;18.03;22.38;98714.59;6232152;28;97583;-72
2022/04/18 12:38:48;;;;;;;;;10.00;9.00;;;;;17.82;22.27;98723.06;6208138;28;98180;-71
2022/04/18 12:42:01;;;;;;;;;7.00;6.00;;;;;17.60;21.72;98712.41;6236938;28;97038;-71
2022/04/18 12:45:05;;;;;;;;;6.00;6.00;;;;;17.54;21.80;98705.31;6233482;28;96852;-71
2022/04/18 12:48:09;;;;;;;;;6.40;6.40;;;;;17.51;21.74;98697.66;6225236;28;97778;-71
2022/04/18 12:51:13;;;;;;;;;6.00;5.00;;;;;17.46;21.64;98701.19;6233590;28;97116;-71
2022/04/18 12:54:21;;;;;;;;;5.60;5.00;;;;;17.38;22.05;98693.56;6236733;28;96649;-71
2022/04/18 12:57:24;;;;;;;;;6.00;5.00;;;;;17.41;22.28;98697.66;6232264;28;97106;-73
2022/04/18 13:00:35;;;;;;;;;6.00;6.00;;;;;17.18;22.79;98709.88;6227919;28;99604;-72
2022/04/18 13:03:43;;;;;;;;;6.80;6.80;;;;;16.94;23.36;98703.25;6232402;28;97243;-71
2022/04/18 13:06:56;;;;;;;;;7.25;6.25;;;;;16.66;24.04;98699.09;6230817;28;99743;-71
2022/04/18 13:10:04;;;;;;;;;7.25;6.25;;;;;16.42;24.30;98679.59;6232638;28;96857;-72
2022/04/18 13:13:11;;;;;;;;;7.00;6.00;;;;;16.51;24.82;98705.25;6234564;28;97506;-70
2022/04/18 13:16:22;;;;;;;;;7.00;6.80;;;;;16.29;24.74;98694.50;6228279;28;97796;-71
2022/04/18 13:19:25;;;;;;;;;5.00;5.00;;;;;16.36;25.14;98697.00;6234036;28;97038;-72
2022/04/18 13:22:29;;;;;;;;;8.00;8.00;;;;;16.31;25.16;98700.50;6235670;28;96828;-72
2022/04/18 13:25:35;;;;;;;;;8.40;8.00;;;;;16.32;25.35;98695.88;6236435;28;96878;-69
2022/04/18 13:28:40;;;;;;;;;7.40;7.40;;;;;16.38;25.29;98694.81;6233804;28;98356;-71
2022/04/18 13:31:43;;;;;;;;;6.00;6.00;;;;;16.58;24.93;98684.06;6232611;28;96890;-71
2022/04/18 13:34:47;;;;;;;;;6.00;6.00;;;;;16.77;24.83;98692.56;6243750;27;96557;-71
2022/04/18 13:37:51;;;;;;;;;6.20;6.20;;;;;16.98;24.62;98677.13;6263552;27;97083;-71
2022/04/18 13:40:56;;;;;;;;;7.00;6.00;;;;;17.21;24.38;98679.34;6260090;27;97472;-71
2022/04/18 13:44:00;;;;;;;;;6.00;6.00;;;;;17.40;24.41;98666.84;6242862;27;98695;-72
2022/04/18 13:47:03;;;;;;;;;5.00;5.00;;;;;17.63;23.63;98668.28;6245071;27;96420;-72
2022/04/18 13:50:09;;;;;;;;;6.00;5.00;;;;;17.64;23.31;98653.56;6224724;27;96804;-71
2022/04/18 13:53:12;;;;;;;;;5.00;5.00;;;;;18.01;22.32;98658.69;6260314;27;97656;-71
2022/04/18 13:56:19;;;;;;;;;7.00;7.00;;;;;18.38;22.33;98663.78;6262504;27;96863;-70
2022/04/18 13:59:22;;;;;;;;;6.00;5.60;;;;;18.69;21.70;98653.59;6260538;27;96441;-71
2022/04/18 14:02:25;;;;;;;;;5.25;4.75;;;;;19.14;21.29;98649.81;6244404;27;99911;-71
2022/04/18 14:05:28;;;;;;;;;7.00;6.00;;;;;19.43;21.25;98646.06;6260558;27;97486;-72
2022/04/18 14:08:33;;;;;;;;;6.00;5.40;;;;;19.68;19.81;98638.78;6244056;27;98951;-71
2022/04/18 14:11:40;;;;;;;;;6.50;5.50;;;;;19.88;20.25;98631.22;6244587;27;96948;-72
2022/04/18 14:21:28;;;;;;;;;8.00;7.00;;;;;20.40;20.05;98610.41;6243299;27;96857;-70
2022/04/18 14:24:31;;;;;;;;;6.00;6.00;;;;;20.55;19.42;98620.38;6262605;27;97392;-70
2022/04/18 14:27:36;;;;;;;;;8.00;7.40;;;;;20.57;19.37;98618.16;6237461;27;97135;-70
2022/04/18 14:30:40;;;;;;;;;5.00;5.00;;;;;20.51;19.56;98620.16;6234736;27;99868;-70
2022/04/18 14:33:44;;;;;;;;;7.00;5.75;;;;;20.33;19.47;98612.69;6259750;27;97433;-71
2022/04/18 14:36:47;;;;;;;;;8.60;7.60;;;;;20.21;20.10;98609.53;6258661;27;98117;-70
2022/04/18 14:39:52;;;;;;;;;7.40;7.00;;;;;19.91;19.30;98599.72;6243235;27;96686;-70
2022/04/18 14:42:56;;;;;;;;;6.20;6.00;;;;;19.72;20.01;98601.53;6244319;27;97074;-70
2022/04/18 14:46:00;;;;;;;;;7.00;7.00;;;;;19.47;20.09;98597.13;6236331;27;97448;-70
2022/04/18 14:49:03;;;;;;;;;6.00;6.00;;;;;19.27;21.04;98599.97;6257737;27;97062;-70
2022/04/18 14:52:09;;;;;;;;;6.00;5.00;;;;;19.12;21.28;98606.38;6242525;27;96740;-71
2022/04/18 14:55:12;;;;;;;;;6.50;6.50;;;;;19.11;20.79;98593.00;6244745;27;96831;-71
2022/04/18 14:58:17;;;;;;;;;7.00;6.00;;;;;18.89;20.41;98590.69;6245753;27;98033;-70
2022/04/18 15:01:20;;;;;;;;;7.00;6.00;;;;;18.73;21.05;98603.59;6243336;27;99553;-70